createdAt,value
2023-05-19T00:01:20.475Z,73.35
2023-05-19T00:04:24.682Z,73.39
2023-05-19T00:07:32.686Z,73.30
2023-05-19T00:10:37.809Z,73.62
2023-05-19T00:13:42.529Z,73.58
2023-05-19T00:16:47.600Z,73.89
2023-05-19T00:19:52.633Z,74.27
2023-05-19T00:22:56.730Z,73.71
2023-05-19T00:26:00.766Z,73.76
2023-05-19T00:29:05.391Z,73.99
2023-05-19T00:32:10.357Z,74.52
2023-05-19T00:35:14.784Z,74.36
2023-05-19T00:38:19.085Z,74.56
2023-05-19T00:41:23.086Z,75.08
2023-05-19T00:44:27.118Z,75.13
2023-05-19T00:47:31.320Z,74.75
2023-05-19T00:50:35.725Z,74.60
2023-05-19T00:53:39.742Z,74.44
2023-05-19T00:56:43.904Z,74.52
2023-05-19T00:59:50.985Z,74.32
2023-05-19T01:02:56.192Z,74.02
2023-05-19T01:06:05.383Z,73.76
2023-05-19T01:09:09.672Z,73.87
2023-05-19T01:12:13.818Z,73.76
2023-05-19T01:15:18.012Z,73.94
2023-05-19T01:18:32.562Z,73.86
2023-05-19T01:22:02.378Z,73.17
2023-05-19T01:25:13.193Z,73.16
2023-05-19T01:29:06.161Z,72.94
2023-05-19T01:32:12.147Z,72.62
2023-05-19T01:35:17.111Z,72.67
2023-05-19T01:38:22.874Z,72.42
2023-05-19T01:41:28.697Z,72.69
2023-05-19T01:44:34.192Z,72.63
2023-05-19T01:47:43.281Z,72.43
2023-05-19T01:50:47.704Z,72.62
2023-05-19T01:53:52.744Z,72.25
2023-05-19T01:57:30.000Z,72.47
2023-05-19T02:01:28.850Z,72.72
2023-05-19T02:04:59.964Z,73.15
2023-05-19T02:08:17.086Z,72.96
2023-05-19T02:11:44.426Z,73.21
2023-05-19T02:15:01.053Z,72.62
2023-05-19T02:18:06.320Z,72.82
2023-05-19T02:21:13.410Z,73.20
2023-05-19T02:24:17.795Z,73.17
2023-05-19T02:27:21.842Z,73.56
2023-05-19T02:30:26.027Z,72.85
2023-05-19T02:33:30.483Z,73.03
2023-05-19T02:36:36.764Z,72.80
2023-05-19T02:39:42.005Z,73.13
2023-05-19T02:42:46.205Z,73.14
2023-05-19T02:45:50.525Z,73.32
2023-05-19T02:48:54.595Z,74.02
2023-05-19T02:51:58.695Z,73.95
2023-05-19T02:55:02.761Z,74.00
2023-05-19T02:58:06.827Z,73.97
2023-05-19T03:01:11.213Z,74.34
2023-05-19T03:04:15.252Z,74.36
2023-05-19T03:07:25.008Z,74.50
2023-05-19T03:10:30.702Z,74.37
2023-05-19T03:13:35.187Z,74.30
2023-05-19T03:16:41.346Z,74.66
2023-05-19T03:19:45.782Z,74.24
2023-05-19T03:22:50.606Z,74.39
2023-05-19T03:25:56.074Z,74.95
2023-05-19T03:29:01.064Z,74.95
2023-05-19T03:32:07.061Z,75.03
2023-05-19T03:35:11.063Z,75.53
2023-05-19T03:38:15.197Z,75.26
2023-05-19T03:41:25.566Z,75.60
2023-05-19T03:44:29.574Z,74.80
2023-05-19T03:47:33.611Z,75.20
2023-05-19T03:50:56.224Z,75.54
2023-05-19T03:54:04.590Z,75.41
2023-05-19T03:57:11.322Z,75.39
2023-05-19T04:00:16.731Z,75.39
2023-05-19T04:03:21.225Z,75.27
2023-05-19T04:06:25.400Z,74.97
2023-05-19T04:09:36.208Z,75.48
2023-05-19T04:12:40.748Z,75.13
2023-05-19T04:15:44.844Z,75.49
2023-05-19T04:18:48.955Z,75.20
2023-05-19T04:21:53.103Z,75.25
2023-05-19T04:24:58.406Z,75.43
2023-05-19T04:28:03.203Z,75.11
2023-05-19T04:31:11.004Z,75.10
2023-05-19T04:34:15.601Z,75.36
2023-05-19T04:37:20.619Z,75.41
2023-05-19T04:40:24.906Z,75.33
2023-05-19T04:43:29.266Z,75.04
2023-05-19T04:46:33.937Z,74.99
2023-05-19T04:49:41.051Z,74.92
2023-05-19T04:52:48.073Z,75.18
2023-05-19T04:55:52.505Z,75.28
2023-05-19T04:58:56.581Z,75.39
2023-05-19T05:02:01.553Z,74.97
2023-05-19T05:05:07.982Z,75.14
2023-05-19T05:08:12.189Z,74.75
2023-05-19T05:11:19.249Z,74.62
2023-05-19T05:14:24.710Z,74.94
2023-05-19T05:17:29.402Z,74.55
2023-05-19T05:20:34.445Z,74.58
2023-05-19T05:23:39.891Z,74.34
2023-05-19T05:26:44.333Z,74.89
2023-05-19T05:29:49.460Z,74.71
2023-05-19T05:32:56.008Z,74.94
2023-05-19T05:36:11.445Z,74.75
2023-05-19T05:39:15.556Z,75.03
2023-05-19T05:42:20.410Z,74.95
2023-05-19T05:45:26.290Z,75.21
2023-05-19T05:48:31.175Z,75.06
2023-05-19T05:51:35.899Z,74.77
2023-05-19T05:54:40.701Z,75.31
2023-05-19T05:57:44.952Z,75.42
2023-05-19T06:00:49.492Z,75.13
2023-05-19T06:03:54.166Z,75.15
2023-05-19T06:07:01.820Z,74.89
2023-05-19T06:10:10.300Z,74.95
2023-05-19T06:13:18.094Z,75.21
2023-05-19T06:16:23.542Z,75.54
2023-05-19T06:19:30.804Z,75.19
2023-05-19T06:22:35.979Z,75.03
2023-05-19T06:25:40.330Z,75.15
2023-05-19T06:28:44.452Z,75.16
2023-05-19T06:31:49.201Z,74.96
2023-05-19T06:34:54.884Z,75.14
2023-05-19T06:37:59.308Z,75.06
2023-05-19T06:41:03.498Z,74.99
2023-05-19T06:44:09.034Z,74.73
2023-05-19T06:47:13.253Z,74.74
2023-05-19T06:50:17.702Z,74.99
2023-05-19T06:53:23.564Z,75.19
2023-05-19T06:56:28.875Z,74.94
2023-05-19T06:59:33.444Z,75.46
2023-05-19T07:02:37.721Z,75.39
2023-05-19T07:05:42.110Z,75.65
2023-05-19T07:08:46.444Z,75.54
2023-05-19T07:11:51.072Z,75.56
2023-05-19T07:14:55.126Z,75.48
2023-05-19T07:18:00.646Z,75.32
2023-05-19T07:21:04.865Z,75.26
2023-05-19T07:24:08.958Z,74.59
2023-05-19T07:27:13.020Z,74.56
2023-05-19T07:30:17.163Z,74.75
2023-05-19T07:33:21.208Z,74.82
2023-05-19T07:36:25.776Z,74.75
2023-05-19T07:39:32.401Z,74.84
2023-05-19T07:42:36.522Z,74.73
2023-05-19T07:45:40.803Z,74.82
2023-05-19T07:48:44.925Z,74.90
2023-05-19T07:51:49.086Z,75.20
2023-05-19T07:54:53.367Z,75.62
2023-05-19T07:57:57.425Z,75.37
2023-05-19T08:01:01.708Z,75.06
2023-05-19T08:04:06.346Z,75.05
2023-05-19T08:07:10.501Z,74.97
2023-05-19T08:10:14.616Z,74.87
2023-05-19T08:13:18.718Z,74.63
2023-05-19T08:16:23.125Z,74.65
2023-05-19T08:19:27.452Z,74.65
2023-05-19T08:22:32.098Z,74.64
2023-05-19T08:25:36.359Z,74.68
2023-05-19T08:28:40.591Z,74.76
2023-05-19T08:31:44.641Z,74.75
2023-05-19T08:34:48.904Z,74.86
2023-05-19T08:37:52.980Z,74.60
2023-05-19T08:40:58.199Z,74.68
2023-05-19T08:44:02.289Z,74.86
2023-05-19T08:47:12.678Z,74.74
2023-05-19T08:50:21.427Z,74.57
2023-05-19T08:56:55.745Z,74.17
2023-05-19T09:00:01.230Z,74.21
2023-05-19T09:03:17.649Z,74.06
2023-05-19T09:06:27.527Z,74.07
2023-05-19T09:09:32.053Z,74.15
2023-05-19T09:12:36.106Z,73.58
2023-05-19T09:15:44.708Z,73.22
2023-05-19T09:18:59.001Z,73.53
2023-05-19T09:22:03.648Z,73.71
2023-05-19T09:25:19.291Z,73.97
2023-05-19T09:28:28.195Z,73.81
2023-05-19T09:31:33.294Z,73.60
2023-05-19T09:34:41.766Z,73.50
2023-05-19T09:37:46.414Z,73.04
2023-05-19T09:40:51.667Z,72.80
2023-05-19T09:44:00.135Z,72.55
2023-05-19T09:47:04.602Z,72.55
2023-05-19T09:50:10.688Z,72.71
2023-05-19T09:53:15.328Z,72.66
2023-05-19T09:56:23.861Z,72.90
2023-05-19T09:59:32.537Z,72.81
2023-05-19T10:02:41.678Z,72.92
2023-05-19T10:05:47.756Z,72.84
2023-05-19T10:08:52.875Z,72.16
2023-05-19T10:11:58.351Z,72.07
2023-05-19T10:15:03.092Z,71.85
2023-05-19T10:18:09.768Z,72.04
2023-05-19T10:21:14.564Z,72.14
2023-05-19T10:24:19.794Z,72.08
2023-05-19T10:27:27.313Z,71.67
2023-05-19T10:30:36.565Z,71.65
2023-05-19T10:34:09.373Z,71.29
2023-05-19T10:37:19.127Z,71.02
2023-05-19T10:40:37.108Z,71.05
2023-05-19T10:43:41.338Z,70.67
2023-05-19T10:46:46.120Z,71.00
2023-05-19T10:49:52.762Z,70.84
2023-05-19T10:52:56.866Z,70.48
2023-05-19T10:56:04.395Z,70.35
2023-05-19T10:59:35.516Z,70.49
2023-05-19T11:02:42.084Z,70.10
2023-05-19T11:05:51.263Z,70.23
2023-05-19T11:09:01.541Z,69.99
2023-05-19T11:12:07.174Z,69.64
2023-05-19T11:15:13.921Z,69.33
2023-05-19T11:18:19.717Z,68.91
2023-05-19T11:21:23.863Z,69.06
2023-05-19T11:24:50.789Z,68.69
2023-05-19T11:27:55.456Z,68.43
2023-05-19T11:31:02.382Z,68.44
2023-05-19T11:34:07.436Z,68.43
2023-05-19T11:37:12.295Z,68.58
2023-05-19T11:40:17.405Z,68.44
2023-05-19T11:43:25.882Z,68.44
2023-05-19T11:46:32.175Z,68.53
2023-05-19T11:49:36.410Z,68.57
2023-05-19T11:52:45.072Z,68.50
2023-05-19T11:55:49.612Z,68.52
2023-05-19T11:58:54.806Z,68.33
2023-05-19T12:02:03.248Z,68.11
2023-05-19T12:05:18.127Z,68.31
2023-05-19T12:08:23.066Z,68.32
2023-05-19T12:11:29.107Z,67.86
2023-05-19T12:14:34.633Z,68.06
2023-05-19T12:17:39.117Z,67.51
2023-05-19T12:20:43.580Z,67.43
2023-05-19T12:23:47.864Z,67.59
2023-05-19T12:26:52.209Z,67.45
2023-05-19T12:30:00.144Z,67.49
2023-05-19T12:33:04.654Z,67.02
2023-05-19T12:36:10.114Z,67.54
2023-05-19T12:39:14.664Z,67.43
2023-05-19T12:42:18.716Z,67.27
2023-05-19T12:45:23.511Z,67.07
2023-05-19T12:48:28.710Z,67.10
2023-05-19T12:51:32.785Z,67.01
2023-05-19T12:54:37.022Z,67.08
2023-05-19T12:57:42.220Z,67.22
2023-05-19T13:00:48.663Z,67.55
2023-05-19T13:03:52.946Z,67.12
2023-05-19T13:06:57.366Z,67.57
2023-05-19T13:10:01.539Z,67.35
2023-05-19T13:13:06.812Z,67.35
2023-05-19T13:16:10.840Z,67.41
2023-05-19T13:19:25.444Z,67.44
2023-05-19T13:22:30.321Z,67.50
2023-05-19T13:25:34.846Z,67.44
2023-05-19T13:28:38.879Z,67.60
2023-05-19T13:31:42.926Z,67.39
2023-05-19T13:34:47.052Z,67.44
2023-05-19T13:37:51.161Z,67.71
2023-05-19T13:40:55.153Z,67.51
2023-05-19T13:43:59.706Z,67.45
2023-05-19T13:47:03.912Z,67.16
2023-05-19T13:50:08.215Z,67.32
2023-05-19T13:53:12.219Z,67.64
2023-05-19T13:56:16.332Z,67.73
2023-05-19T13:59:23.325Z,67.66
2023-05-19T14:02:27.507Z,67.38
2023-05-19T14:05:31.659Z,67.50
2023-05-19T14:08:36.526Z,67.39
2023-05-19T14:11:40.614Z,67.30
2023-05-19T14:14:44.837Z,67.36
2023-05-19T14:17:49.222Z,67.43
2023-05-19T14:20:53.292Z,66.97
2023-05-19T14:23:57.928Z,66.94
2023-05-19T14:27:02.230Z,67.50
2023-05-19T14:30:06.754Z,67.67
2023-05-19T14:33:11.414Z,68.02
2023-05-19T14:36:15.644Z,67.79
2023-05-19T14:39:19.627Z,67.79
2023-05-19T14:42:23.726Z,67.81
2023-05-19T14:45:27.866Z,67.77
2023-05-19T14:48:32.280Z,68.02
2023-05-19T14:51:36.489Z,67.71
2023-05-19T14:54:40.445Z,67.62
2023-05-19T14:57:44.482Z,67.68
2023-05-19T15:00:48.466Z,67.73
2023-05-19T15:03:52.727Z,67.63
2023-05-19T15:10:10.240Z,67.89
2023-05-19T15:13:14.255Z,67.81
2023-05-19T15:16:18.532Z,68.02
2023-05-19T15:19:22.769Z,68.30
2023-05-19T15:22:26.941Z,68.52
2023-05-19T15:25:30.910Z,68.65
2023-05-19T15:28:34.902Z,68.65
2023-05-19T15:31:38.935Z,68.47
2023-05-19T15:34:43.085Z,68.46
2023-05-19T15:37:47.029Z,68.70
2023-05-19T15:40:51.232Z,68.60
2023-05-19T15:43:55.197Z,68.44
2023-05-19T15:46:59.242Z,68.40
2023-05-19T15:50:03.471Z,68.39
2023-05-19T15:53:08.349Z,68.74
2023-05-19T15:56:13.666Z,68.88
2023-05-19T15:59:17.691Z,69.57
2023-05-19T16:02:21.750Z,69.63
2023-05-19T16:05:25.939Z,69.45
2023-05-19T16:08:30.048Z,69.08
2023-05-19T16:11:34.095Z,69.04
2023-05-19T16:14:38.062Z,69.22
2023-05-19T16:17:42.057Z,69.57
2023-05-19T16:20:46.402Z,69.31
2023-05-19T16:23:50.421Z,69.09
2023-05-19T16:26:54.620Z,69.13
2023-05-19T16:30:01.105Z,69.02
2023-05-19T16:33:05.476Z,69.18
2023-05-19T16:36:09.663Z,69.01
2023-05-19T16:39:13.802Z,69.03
2023-05-19T16:42:17.892Z,69.31
2023-05-19T16:45:22.037Z,69.45
2023-05-19T16:48:26.021Z,69.45
2023-05-19T16:51:30.060Z,69.24
2023-05-19T16:54:34.685Z,69.70
2023-05-19T16:57:38.676Z,69.67
2023-05-19T17:00:42.718Z,69.62
2023-05-19T17:03:46.767Z,69.57
2023-05-19T17:06:51.084Z,69.72
2023-05-19T17:09:56.057Z,70.02
2023-05-19T17:13:00.174Z,70.10
2023-05-19T17:16:04.464Z,70.28
2023-05-19T17:19:08.441Z,70.33
2023-05-19T17:22:12.738Z,70.32
2023-05-19T17:25:17.025Z,70.61
2023-05-19T17:28:21.195Z,70.57
2023-05-19T17:31:25.170Z,71.08
2023-05-19T17:34:30.254Z,70.79
2023-05-19T17:37:34.388Z,70.94
2023-05-19T17:40:40.077Z,71.19
2023-05-19T17:43:45.970Z,71.33
2023-05-19T17:46:50.120Z,71.04
2023-05-19T17:49:54.176Z,71.04
2023-05-19T17:52:58.840Z,70.93
2023-05-19T17:56:06.621Z,71.25
2023-05-19T17:59:11.398Z,71.65
2023-05-19T18:02:16.062Z,71.72
2023-05-19T18:05:21.037Z,71.67
2023-05-19T18:08:26.017Z,71.55
2023-05-19T18:11:30.024Z,71.54
2023-05-19T18:14:34.062Z,71.37
2023-05-19T18:17:38.111Z,71.28
2023-05-19T18:20:44.853Z,71.47
2023-05-19T18:23:48.832Z,71.62
2023-05-19T18:26:52.866Z,71.60
2023-05-19T18:29:56.983Z,71.46
2023-05-19T18:33:03.908Z,71.66
2023-05-19T18:36:08.486Z,71.53
2023-05-19T18:39:12.472Z,71.92
2023-05-19T18:42:16.713Z,71.87
2023-05-19T18:45:20.889Z,71.96
2023-05-19T18:48:25.786Z,72.24
2023-05-19T18:51:30.007Z,72.32
2023-05-19T18:54:34.084Z,72.56
2023-05-19T18:57:38.243Z,72.87
2023-05-19T19:00:42.259Z,72.76
2023-05-19T19:03:49.500Z,72.90
2023-05-19T19:06:53.589Z,72.95
2023-05-19T19:09:57.585Z,72.82
2023-05-19T19:13:01.563Z,72.67
2023-05-19T19:16:06.377Z,72.53
2023-05-19T19:19:10.428Z,72.62
2023-05-19T19:22:14.521Z,72.81
2023-05-19T19:25:18.513Z,73.04
2023-05-19T19:28:23.199Z,73.03
2023-05-19T19:31:28.822Z,73.12
2023-05-19T19:34:33.941Z,73.48
2023-05-19T19:37:38.028Z,73.57
2023-05-19T19:40:42.215Z,73.74
2023-05-19T19:43:46.254Z,73.78
2023-05-19T19:46:51.046Z,73.61
2023-05-19T19:49:56.067Z,73.48
2023-05-19T19:53:00.799Z,73.48
2023-05-19T19:56:06.199Z,73.70
2023-05-19T19:59:10.756Z,73.95
2023-05-19T20:02:14.823Z,74.10
2023-05-19T20:05:19.041Z,74.22
2023-05-19T20:08:24.489Z,74.17
2023-05-19T20:11:30.304Z,74.22
2023-05-19T20:14:34.305Z,74.54
2023-05-19T20:17:38.586Z,74.77
2023-05-19T20:20:42.881Z,74.74
2023-05-19T20:23:46.945Z,74.82
2023-05-19T20:26:51.195Z,74.83
2023-05-19T20:29:55.186Z,74.82
2023-05-19T20:32:59.234Z,74.83
2023-05-19T20:36:04.853Z,74.87
2023-05-19T20:39:11.977Z,74.77
2023-05-19T20:42:16.100Z,74.90
2023-05-19T20:45:20.524Z,74.75
2023-05-19T20:48:24.699Z,74.78
2023-05-19T20:51:28.869Z,74.99
2023-05-19T20:54:32.942Z,75.03
2023-05-19T20:57:37.061Z,75.35
2023-05-19T21:00:41.404Z,75.39
2023-05-19T21:03:45.410Z,75.33
2023-05-19T21:06:49.651Z,75.39
2023-05-19T21:09:54.579Z,75.46
2023-05-19T21:12:58.958Z,75.64
2023-05-19T21:16:03.039Z,75.76
2023-05-19T21:19:07.055Z,75.93
2023-05-19T21:22:11.368Z,76.15
2023-05-19T21:25:17.061Z,76.08
2023-05-19T21:28:21.458Z,76.11
2023-05-19T21:31:25.520Z,76.36
2023-05-19T21:34:29.666Z,76.20
2023-05-19T21:37:33.694Z,76.29
2023-05-19T21:40:37.939Z,76.21
2023-05-19T21:43:42.211Z,76.15
2023-05-19T21:46:46.323Z,76.26
2023-05-19T21:49:50.425Z,76.09
2023-05-19T21:52:54.418Z,76.19
2023-05-19T21:55:59.193Z,76.22
2023-05-19T21:59:03.411Z,76.34
2023-05-19T22:02:07.649Z,76.35
2023-05-19T22:05:12.121Z,76.41
2023-05-19T22:08:19.685Z,76.35
2023-05-19T22:11:23.812Z,76.57
2023-05-19T22:14:28.009Z,76.44
2023-05-19T22:17:32.208Z,76.67
2023-05-19T22:20:37.786Z,76.47
2023-05-19T22:23:41.794Z,76.55
2023-05-19T22:26:47.079Z,76.61
2023-05-19T22:29:51.173Z,76.68
2023-05-19T22:32:55.263Z,76.80
2023-05-19T22:35:59.361Z,76.78
2023-05-19T22:39:03.409Z,76.84
2023-05-19T22:42:07.479Z,76.78
2023-05-19T22:45:11.626Z,77.10
2023-05-19T22:48:16.412Z,77.22
2023-05-19T22:51:21.332Z,77.27
2023-05-19T22:54:25.327Z,77.19
2023-05-19T22:57:29.880Z,77.17
2023-05-19T23:00:33.895Z,77.22
2023-05-19T23:03:37.895Z,77.09
2023-05-19T23:06:42.059Z,77.41
2023-05-19T23:09:46.037Z,77.30
2023-05-19T23:12:51.564Z,77.53
2023-05-19T23:15:55.503Z,77.63
2023-05-19T23:18:59.559Z,77.54
2023-05-19T23:22:03.624Z,77.52
2023-05-19T23:25:08.217Z,77.67
2023-05-19T23:28:12.343Z,77.61
2023-05-19T23:31:16.443Z,77.60
2023-05-19T23:34:20.639Z,77.49
2023-05-19T23:37:24.656Z,77.54
2023-05-19T23:40:28.712Z,77.57
2023-05-19T23:43:32.826Z,77.34
2023-05-19T23:46:36.880Z,77.58
2023-05-19T23:49:41.096Z,77.53
2023-05-19T23:52:45.197Z,77.66
2023-05-19T23:55:49.375Z,77.53
2023-05-19T23:58:53.453Z,77.70
